sensor_id;sensor_type;location;lat;lon;timestamp;P1;durP1;ratioP1;P2;durP2;ratioP2
28682;SDS011;15862;43.062;25.626;2023-02-11T00:00:40;63.97;;;23.88;;
28682;SDS011;15862;43.062;25.626;2023-02-11T00:03:06;60.30;;;23.15;;
28682;SDS011;15862;43.062;25.626;2023-02-11T00:05:31;56.70;;;22.90;;
28682;SDS011;15862;43.062;25.626;2023-02-11T00:07:57;46.22;;;19.65;;
28682;SDS011;15862;43.062;25.626;2023-02-11T00:10:22;42.20;;;20.10;;
28682;SDS011;15862;43.062;25.626;2023-02-11T00:12:48;50.08;;;20.08;;
28682;SDS011;15862;43.062;25.626;2023-02-11T00:15:13;47.03;;;19.38;;
28682;SDS011;15862;43.062;25.626;2023-02-11T00:17:39;54.72;;;19.88;;
28682;SDS011;15862;43.062;25.626;2023-02-11T00:20:04;57.72;;;23.10;;
28682;SDS011;15862;43.062;25.626;2023-02-11T00:22:30;42.88;;;20.40;;
28682;SDS011;15862;43.062;25.626;2023-02-11T00:24:55;65.13;;;23.80;;
28682;SDS011;15862;43.062;25.626;2023-02-11T00:27:21;60.05;;;27.50;;
28682;SDS011;15862;43.062;25.626;2023-02-11T00:29:46;75.38;;;27.65;;
28682;SDS011;15862;43.062;25.626;2023-02-11T00:32:12;69.53;;;27.02;;
28682;SDS011;15862;43.062;25.626;2023-02-11T00:34:37;69.05;;;28.42;;
28682;SDS011;15862;43.062;25.626;2023-02-11T00:37:03;62.78;;;27.60;;
28682;SDS011;15862;43.062;25.626;2023-02-11T00:39:29;52.70;;;24.25;;
28682;SDS011;15862;43.062;25.626;2023-02-11T00:41:55;62.60;;;27.58;;
28682;SDS011;15862;43.062;25.626;2023-02-11T00:44:21;58.13;;;25.58;;
28682;SDS011;15862;43.062;25.626;2023-02-11T00:46:46;57.72;;;24.95;;
28682;SDS011;15862;43.062;25.626;2023-02-11T00:49:12;68.20;;;26.30;;
28682;SDS011;15862;43.062;25.626;2023-02-11T00:51:38;67.65;;;25.67;;
28682;SDS011;15862;43.062;25.626;2023-02-11T00:54:03;48.08;;;20.77;;
28682;SDS011;15862;43.062;25.626;2023-02-11T00:56:29;48.85;;;20.42;;
28682;SDS011;15862;43.062;25.626;2023-02-11T00:58:55;57.33;;;26.08;;
28682;SDS011;15862;43.062;25.626;2023-02-11T01:01:20;70.85;;;28.33;;
28682;SDS011;15862;43.062;25.626;2023-02-11T01:03:46;66.95;;;26.90;;
28682;SDS011;15862;43.062;25.626;2023-02-11T01:06:11;53.63;;;22.38;;
28682;SDS011;15862;43.062;25.626;2023-02-11T01:08:37;55.85;;;21.63;;
28682;SDS011;15862;43.062;25.626;2023-02-11T01:11:04;48.33;;;21.25;;
28682;SDS011;15862;43.062;25.626;2023-02-11T01:13:32;50.30;;;21.30;;
28682;SDS011;15862;43.062;25.626;2023-02-11T01:15:59;47.75;;;20.02;;
28682;SDS011;15862;43.062;25.626;2023-02-11T01:18:25;50.33;;;23.67;;
28682;SDS011;15862;43.062;25.626;2023-02-11T01:20:51;45.33;;;22.33;;
28682;SDS011;15862;43.062;25.626;2023-02-11T01:23:17;50.67;;;20.23;;
28682;SDS011;15862;43.062;25.626;2023-02-11T01:25:42;40.50;;;17.23;;
28682;SDS011;15862;43.062;25.626;2023-02-11T01:28:13;40.88;;;16.67;;
28682;SDS011;15862;43.062;25.626;2023-02-11T01:30:45;47.20;;;17.95;;
28682;SDS011;15862;43.062;25.626;2023-02-11T01:33:10;43.50;;;18.23;;
28682;SDS011;15862;43.062;25.626;2023-02-11T01:35:37;37.47;;;19.17;;
28682;SDS011;15862;43.062;25.626;2023-02-11T01:38:03;55.53;;;20.88;;
28682;SDS011;15862;43.062;25.626;2023-02-11T01:40:29;47.85;;;19.13;;
28682;SDS011;15862;43.062;25.626;2023-02-11T01:42:54;37.90;;;18.52;;
28682;SDS011;15862;43.062;25.626;2023-02-11T01:48:03;39.88;;;17.17;;
28682;SDS011;15862;43.062;25.626;2023-02-11T01:50:28;40.42;;;18.55;;
28682;SDS011;15862;43.062;25.626;2023-02-11T01:52:54;46.72;;;18.25;;
28682;SDS011;15862;43.062;25.626;2023-02-11T01:55:40;40.03;;;18.65;;
28682;SDS011;15862;43.062;25.626;2023-02-11T01:58:24;37.35;;;17.50;;
28682;SDS011;15862;43.062;25.626;2023-02-11T02:00:50;41.42;;;18.10;;
28682;SDS011;15862;43.062;25.626;2023-02-11T02:03:17;48.83;;;19.80;;
28682;SDS011;15862;43.062;25.626;2023-02-11T02:11:14;53.28;;;22.25;;
28682;SDS011;15862;43.062;25.626;2023-02-11T02:13:39;51.83;;;20.95;;
28682;SDS011;15862;43.062;25.626;2023-02-11T02:16:06;43.45;;;17.80;;
28682;SDS011;15862;43.062;25.626;2023-02-11T02:22:02;49.78;;;17.52;;
28682;SDS011;15862;43.062;25.626;2023-02-11T02:30:19;42.42;;;18.90;;
28682;SDS011;15862;43.062;25.626;2023-02-11T02:38:36;60.13;;;21.02;;
28682;SDS011;15862;43.062;25.626;2023-02-11T02:41:09;49.03;;;20.92;;
28682;SDS011;15862;43.062;25.626;2023-02-11T02:43:39;51.35;;;21.65;;
28682;SDS011;15862;43.062;25.626;2023-02-11T02:46:10;41.30;;;18.27;;
28682;SDS011;15862;43.062;25.626;2023-02-11T02:48:41;46.80;;;21.50;;
28682;SDS011;15862;43.062;25.626;2023-02-11T02:53:57;48.58;;;18.77;;
28682;SDS011;15862;43.062;25.626;2023-02-11T02:56:38;37.67;;;18.08;;
28682;SDS011;15862;43.062;25.626;2023-02-11T03:04:36;42.13;;;18.90;;
28682;SDS011;15862;43.062;25.626;2023-02-11T03:07:29;42.50;;;19.67;;
28682;SDS011;15862;43.062;25.626;2023-02-11T03:10:42;53.55;;;21.48;;
28682;SDS011;15862;43.062;25.626;2023-02-11T03:13:10;55.55;;;21.92;;
28682;SDS011;15862;43.062;25.626;2023-02-11T03:15:42;45.60;;;23.15;;
28682;SDS011;15862;43.062;25.626;2023-02-11T03:18:11;47.20;;;20.83;;
28682;SDS011;15862;43.062;25.626;2023-02-11T03:20:40;54.53;;;20.90;;
28682;SDS011;15862;43.062;25.626;2023-02-11T03:23:17;42.28;;;19.20;;
28682;SDS011;15862;43.062;25.626;2023-02-11T03:25:49;44.00;;;18.42;;
28682;SDS011;15862;43.062;25.626;2023-02-11T03:28:54;53.92;;;20.83;;
28682;SDS011;15862;43.062;25.626;2023-02-11T03:33:56;66.60;;;27.98;;
28682;SDS011;15862;43.062;25.626;2023-02-11T03:36:48;57.58;;;24.30;;
28682;SDS011;15862;43.062;25.626;2023-02-11T03:39:20;43.90;;;20.02;;
28682;SDS011;15862;43.062;25.626;2023-02-11T03:41:49;61.40;;;22.00;;
28682;SDS011;15862;43.062;25.626;2023-02-11T03:44:19;57.97;;;24.55;;
28682;SDS011;15862;43.062;25.626;2023-02-11T03:46:47;64.20;;;25.92;;
28682;SDS011;15862;43.062;25.626;2023-02-11T03:49:16;45.92;;;19.25;;
28682;SDS011;15862;43.062;25.626;2023-02-11T03:51:45;52.50;;;19.77;;
28682;SDS011;15862;43.062;25.626;2023-02-11T03:54:16;54.53;;;23.38;;
28682;SDS011;15862;43.062;25.626;2023-02-11T03:56:50;54.08;;;22.77;;
28682;SDS011;15862;43.062;25.626;2023-02-11T04:01:43;51.05;;;21.60;;
28682;SDS011;15862;43.062;25.626;2023-02-11T04:04:08;52.83;;;21.90;;
28682;SDS011;15862;43.062;25.626;2023-02-11T04:06:34;52.15;;;21.35;;
28682;SDS011;15862;43.062;25.626;2023-02-11T04:08:59;44.45;;;18.58;;
28682;SDS011;15862;43.062;25.626;2023-02-11T04:11:25;51.67;;;18.27;;
28682;SDS011;15862;43.062;25.626;2023-02-11T04:13:50;42.25;;;18.02;;
28682;SDS011;15862;43.062;25.626;2023-02-11T04:16:16;39.53;;;17.83;;
28682;SDS011;15862;43.062;25.626;2023-02-11T04:18:41;35.47;;;17.83;;
28682;SDS011;15862;43.062;25.626;2023-02-11T04:21:06;42.72;;;18.48;;
28682;SDS011;15862;43.062;25.626;2023-02-11T04:23:32;46.22;;;18.00;;
28682;SDS011;15862;43.062;25.626;2023-02-11T04:25:57;43.17;;;19.00;;
28682;SDS011;15862;43.062;25.626;2023-02-11T04:28:23;48.85;;;21.77;;
28682;SDS011;15862;43.062;25.626;2023-02-11T04:30:49;54.42;;;21.33;;
28682;SDS011;15862;43.062;25.626;2023-02-11T04:33:15;51.17;;;21.08;;
28682;SDS011;15862;43.062;25.626;2023-02-11T04:35:40;45.85;;;17.20;;
28682;SDS011;15862;43.062;25.626;2023-02-11T04:38:06;55.95;;;23.25;;
28682;SDS011;15862;43.062;25.626;2023-02-11T04:40:31;54.15;;;20.58;;
28682;SDS011;15862;43.062;25.626;2023-02-11T04:42:57;47.53;;;21.05;;
28682;SDS011;15862;43.062;25.626;2023-02-11T04:45:22;48.35;;;18.30;;
28682;SDS011;15862;43.062;25.626;2023-02-11T04:47:48;40.40;;;18.55;;
28682;SDS011;15862;43.062;25.626;2023-02-11T04:50:13;56.58;;;20.77;;
28682;SDS011;15862;43.062;25.626;2023-02-11T04:52:39;39.78;;;19.20;;
28682;SDS011;15862;43.062;25.626;2023-02-11T04:55:04;51.30;;;19.00;;
28682;SDS011;15862;43.062;25.626;2023-02-11T04:57:30;45.47;;;18.83;;
28682;SDS011;15862;43.062;25.626;2023-02-11T04:59:56;41.83;;;18.52;;
28682;SDS011;15862;43.062;25.626;2023-02-11T05:02:21;56.80;;;22.70;;
28682;SDS011;15862;43.062;25.626;2023-02-11T05:04:47;64.57;;;22.38;;
28682;SDS011;15862;43.062;25.626;2023-02-11T05:07:12;50.00;;;21.90;;
28682;SDS011;15862;43.062;25.626;2023-02-11T05:09:37;55.35;;;21.40;;
28682;SDS011;15862;43.062;25.626;2023-02-11T05:12:03;51.65;;;20.60;;
28682;SDS011;15862;43.062;25.626;2023-02-11T05:14:28;55.78;;;22.27;;
28682;SDS011;15862;43.062;25.626;2023-02-11T05:16:54;67.35;;;26.50;;
28682;SDS011;15862;43.062;25.626;2023-02-11T05:19:19;67.63;;;26.45;;
28682;SDS011;15862;43.062;25.626;2023-02-11T05:21:44;55.75;;;24.23;;
28682;SDS011;15862;43.062;25.626;2023-02-11T05:24:10;39.33;;;17.40;;
28682;SDS011;15862;43.062;25.626;2023-02-11T05:26:35;39.35;;;15.40;;
28682;SDS011;15862;43.062;25.626;2023-02-11T05:29:01;38.78;;;16.50;;
28682;SDS011;15862;43.062;25.626;2023-02-11T05:31:26;51.65;;;15.93;;
28682;SDS011;15862;43.062;25.626;2023-02-11T05:33:52;39.88;;;16.55;;
28682;SDS011;15862;43.062;25.626;2023-02-11T05:36:17;48.65;;;18.90;;
28682;SDS011;15862;43.062;25.626;2023-02-11T05:38:43;39.65;;;17.67;;
28682;SDS011;15862;43.062;25.626;2023-02-11T05:41:08;39.40;;;16.92;;
28682;SDS011;15862;43.062;25.626;2023-02-11T05:43:35;47.22;;;16.42;;
28682;SDS011;15862;43.062;25.626;2023-02-11T05:46:01;35.33;;;16.52;;
28682;SDS011;15862;43.062;25.626;2023-02-11T05:48:30;37.78;;;16.80;;
28682;SDS011;15862;43.062;25.626;2023-02-11T05:50:56;40.17;;;17.73;;
28682;SDS011;15862;43.062;25.626;2023-02-11T05:53:21;42.95;;;18.65;;
28682;SDS011;15862;43.062;25.626;2023-02-11T05:55:47;46.92;;;19.50;;
28682;SDS011;15862;43.062;25.626;2023-02-11T05:58:12;49.35;;;20.50;;
28682;SDS011;15862;43.062;25.626;2023-02-11T06:00:38;43.00;;;18.15;;
28682;SDS011;15862;43.062;25.626;2023-02-11T06:03:03;43.17;;;18.65;;
28682;SDS011;15862;43.062;25.626;2023-02-11T06:05:29;49.92;;;21.60;;
28682;SDS011;15862;43.062;25.626;2023-02-11T06:07:55;53.55;;;24.33;;
28682;SDS011;15862;43.062;25.626;2023-02-11T06:10:21;49.70;;;22.27;;
28682;SDS011;15862;43.062;25.626;2023-02-11T06:12:46;73.68;;;23.98;;
28682;SDS011;15862;43.062;25.626;2023-02-11T06:15:12;71.65;;;24.30;;
28682;SDS011;15862;43.062;25.626;2023-02-11T06:17:37;56.05;;;24.48;;
28682;SDS011;15862;43.062;25.626;2023-02-11T06:20:04;60.65;;;24.55;;
28682;SDS011;15862;43.062;25.626;2023-02-11T06:22:31;66.47;;;25.27;;
28682;SDS011;15862;43.062;25.626;2023-02-11T06:24:57;53.13;;;21.95;;
28682;SDS011;15862;43.062;25.626;2023-02-11T06:27:22;60.28;;;24.25;;
28682;SDS011;15862;43.062;25.626;2023-02-11T06:29:48;63.88;;;26.85;;
28682;SDS011;15862;43.062;25.626;2023-02-11T06:32:13;58.85;;;27.33;;
28682;SDS011;15862;43.062;25.626;2023-02-11T06:34:39;76.10;;;30.77;;
28682;SDS011;15862;43.062;25.626;2023-02-11T06:37:04;58.47;;;28.90;;
28682;SDS011;15862;43.062;25.626;2023-02-11T06:39:30;70.63;;;29.90;;
28682;SDS011;15862;43.062;25.626;2023-02-11T06:41:56;82.63;;;32.20;;
28682;SDS011;15862;43.062;25.626;2023-02-11T06:44:22;66.50;;;28.40;;
28682;SDS011;15862;43.062;25.626;2023-02-11T06:46:47;68.72;;;28.52;;
28682;SDS011;15862;43.062;25.626;2023-02-11T06:49:13;53.08;;;29.00;;
28682;SDS011;15862;43.062;25.626;2023-02-11T06:51:38;59.35;;;26.63;;
28682;SDS011;15862;43.062;25.626;2023-02-11T06:54:04;60.10;;;26.63;;
28682;SDS011;15862;43.062;25.626;2023-02-11T06:56:30;50.65;;;27.02;;
28682;SDS011;15862;43.062;25.626;2023-02-11T06:58:56;63.97;;;25.55;;
28682;SDS011;15862;43.062;25.626;2023-02-11T07:01:23;57.22;;;24.55;;
28682;SDS011;15862;43.062;25.626;2023-02-11T07:03:49;52.33;;;26.63;;
28682;SDS011;15862;43.062;25.626;2023-02-11T07:06:16;53.83;;;25.45;;
28682;SDS011;15862;43.062;25.626;2023-02-11T07:08:44;52.53;;;25.95;;
28682;SDS011;15862;43.062;25.626;2023-02-11T07:11:10;70.55;;;28.27;;
28682;SDS011;15862;43.062;25.626;2023-02-11T07:13:40;57.00;;;26.30;;
28682;SDS011;15862;43.062;25.626;2023-02-11T07:16:07;88.18;;;33.30;;
28682;SDS011;15862;43.062;25.626;2023-02-11T07:18:34;66.28;;;31.33;;
28682;SDS011;15862;43.062;25.626;2023-02-11T07:21:04;71.97;;;31.13;;
28682;SDS011;15862;43.062;25.626;2023-02-11T07:23:31;76.03;;;36.47;;
28682;SDS011;15862;43.062;25.626;2023-02-11T07:25:57;102.45;;;49.45;;
28682;SDS011;15862;43.062;25.626;2023-02-11T07:28:22;84.32;;;43.65;;
28682;SDS011;15862;43.062;25.626;2023-02-11T07:30:48;103.15;;;43.47;;
28682;SDS011;15862;43.062;25.626;2023-02-11T07:33:13;80.65;;;42.35;;
28682;SDS011;15862;43.062;25.626;2023-02-11T07:35:38;94.97;;;50.38;;
28682;SDS011;15862;43.062;25.626;2023-02-11T07:38:04;95.88;;;51.42;;
28682;SDS011;15862;43.062;25.626;2023-02-11T07:40:29;90.10;;;49.40;;
28682;SDS011;15862;43.062;25.626;2023-02-11T07:42:55;85.22;;;44.63;;
28682;SDS011;15862;43.062;25.626;2023-02-11T07:45:21;69.60;;;38.55;;
28682;SDS011;15862;43.062;25.626;2023-02-11T07:47:46;70.30;;;40.88;;
28682;SDS011;15862;43.062;25.626;2023-02-11T07:50:12;74.70;;;41.72;;
28682;SDS011;15862;43.062;25.626;2023-02-11T07:52:37;71.95;;;40.05;;
28682;SDS011;15862;43.062;25.626;2023-02-11T07:55:02;65.80;;;37.17;;
28682;SDS011;15862;43.062;25.626;2023-02-11T07:57:28;62.83;;;34.38;;
28682;SDS011;15862;43.062;25.626;2023-02-11T07:59:53;65.25;;;35.63;;
28682;SDS011;15862;43.062;25.626;2023-02-11T08:02:19;60.53;;;33.75;;
28682;SDS011;15862;43.062;25.626;2023-02-11T08:04:45;63.33;;;35.67;;
28682;SDS011;15862;43.062;25.626;2023-02-11T08:07:13;60.95;;;34.20;;
28682;SDS011;15862;43.062;25.626;2023-02-11T08:09:43;65.68;;;33.80;;
28682;SDS011;15862;43.062;25.626;2023-02-11T08:12:09;70.47;;;35.05;;
28682;SDS011;15862;43.062;25.626;2023-02-11T08:14:34;50.63;;;30.08;;
28682;SDS011;15862;43.062;25.626;2023-02-11T08:17:00;51.67;;;29.60;;
28682;SDS011;15862;43.062;25.626;2023-02-11T08:19:25;71.70;;;40.35;;
28682;SDS011;15862;43.062;25.626;2023-02-11T08:21:53;54.80;;;30.55;;
28682;SDS011;15862;43.062;25.626;2023-02-11T08:24:19;56.13;;;26.13;;
28682;SDS011;15862;43.062;25.626;2023-02-11T08:26:45;50.33;;;29.75;;
28682;SDS011;15862;43.062;25.626;2023-02-11T08:29:12;44.75;;;29.05;;
28682;SDS011;15862;43.062;25.626;2023-02-11T08:31:39;42.05;;;24.58;;
28682;SDS011;15862;43.062;25.626;2023-02-11T08:34:05;40.25;;;21.95;;
28682;SDS011;15862;43.062;25.626;2023-02-11T08:36:34;35.67;;;23.42;;
28682;SDS011;15862;43.062;25.626;2023-02-11T08:39:03;69.65;;;38.88;;
28682;SDS011;15862;43.062;25.626;2023-02-11T08:41:31;65.38;;;40.38;;
28682;SDS011;15862;43.062;25.626;2023-02-11T08:43:57;70.70;;;41.45;;
28682;SDS011;15862;43.062;25.626;2023-02-11T08:46:23;65.38;;;39.17;;
28682;SDS011;15862;43.062;25.626;2023-02-11T08:48:48;44.72;;;25.95;;
28682;SDS011;15862;43.062;25.626;2023-02-11T08:51:18;57.13;;;34.80;;
28682;SDS011;15862;43.062;25.626;2023-02-11T08:53:46;44.58;;;25.90;;
28682;SDS011;15862;43.062;25.626;2023-02-11T08:56:12;34.92;;;22.80;;
28682;SDS011;15862;43.062;25.626;2023-02-11T08:58:38;43.05;;;24.90;;
28682;SDS011;15862;43.062;25.626;2023-02-11T09:01:08;42.60;;;26.48;;
28682;SDS011;15862;43.062;25.626;2023-02-11T09:03:34;44.45;;;27.33;;
28682;SDS011;15862;43.062;25.626;2023-02-11T09:06:02;38.33;;;22.17;;
28682;SDS011;15862;43.062;25.626;2023-02-11T09:08:29;40.88;;;23.85;;
28682;SDS011;15862;43.062;25.626;2023-02-11T09:10:55;30.48;;;19.38;;
28682;SDS011;15862;43.062;25.626;2023-02-11T09:13:21;38.15;;;21.83;;
28682;SDS011;15862;43.062;25.626;2023-02-11T09:15:47;32.20;;;20.65;;
28682;SDS011;15862;43.062;25.626;2023-02-11T09:18:12;23.90;;;13.75;;
28682;SDS011;15862;43.062;25.626;2023-02-11T09:20:38;39.25;;;19.40;;
28682;SDS011;15862;43.062;25.626;2023-02-11T09:23:03;31.77;;;21.88;;
28682;SDS011;15862;43.062;25.626;2023-02-11T09:25:29;30.05;;;19.65;;
28682;SDS011;15862;43.062;25.626;2023-02-11T09:27:54;34.78;;;22.10;;
28682;SDS011;15862;43.062;25.626;2023-02-11T09:30:20;33.92;;;20.55;;
28682;SDS011;15862;43.062;25.626;2023-02-11T09:32:45;29.27;;;18.30;;
28682;SDS011;15862;43.062;25.626;2023-02-11T09:35:11;28.58;;;18.08;;
28682;SDS011;15862;43.062;25.626;2023-02-11T09:37:36;22.90;;;14.93;;
28682;SDS011;15862;43.062;25.626;2023-02-11T09:40:02;19.05;;;14.07;;
28682;SDS011;15862;43.062;25.626;2023-02-11T09:44:55;19.63;;;14.10;;
28682;SDS011;15862;43.062;25.626;2023-02-11T09:47:27;18.05;;;13.30;;
28682;SDS011;15862;43.062;25.626;2023-02-11T09:55:05;24.02;;;16.17;;
28682;SDS011;15862;43.062;25.626;2023-02-11T09:57:40;27.40;;;18.75;;
28682;SDS011;15862;43.062;25.626;2023-02-11T10:00:16;26.40;;;17.85;;
28682;SDS011;15862;43.062;25.626;2023-02-11T10:08:27;33.47;;;23.25;;
28682;SDS011;15862;43.062;25.626;2023-02-11T10:11:40;35.90;;;22.15;;
28682;SDS011;15862;43.062;25.626;2023-02-11T10:13:46;33.55;;;21.20;;
28682;SDS011;15862;43.062;25.626;2023-02-11T10:19:18;29.25;;;20.52;;
28682;SDS011;15862;43.062;25.626;2023-02-11T10:24:30;25.73;;;19.35;;
28682;SDS011;15862;43.062;25.626;2023-02-11T10:26:57;24.77;;;16.85;;
28682;SDS011;15862;43.062;25.626;2023-02-11T10:32:02;21.02;;;16.27;;
28682;SDS011;15862;43.062;25.626;2023-02-11T10:34:39;22.17;;;15.93;;
28682;SDS011;15862;43.062;25.626;2023-02-11T10:37:05;29.10;;;17.30;;
28682;SDS011;15862;43.062;25.626;2023-02-11T10:39:31;30.13;;;18.23;;
28682;SDS011;15862;43.062;25.626;2023-02-11T10:42:00;20.42;;;14.65;;
28682;SDS011;15862;43.062;25.626;2023-02-11T10:44:30;20.77;;;14.43;;
28682;SDS011;15862;43.062;25.626;2023-02-11T10:47:00;14.43;;;10.07;;
28682;SDS011;15862;43.062;25.626;2023-02-11T10:49:39;17.67;;;11.00;;
28682;SDS011;15862;43.062;25.626;2023-02-11T10:54:54;14.35;;;9.68;;
28682;SDS011;15862;43.062;25.626;2023-02-11T10:58:00;16.70;;;10.23;;
28682;SDS011;15862;43.062;25.626;2023-02-11T11:03:17;13.07;;;9.25;;
28682;SDS011;15862;43.062;25.626;2023-02-11T11:05:46;47.40;;;14.02;;
28682;SDS011;15862;43.062;25.626;2023-02-11T11:08:17;17.17;;;10.15;;
28682;SDS011;15862;43.062;25.626;2023-02-11T11:11:03;14.15;;;10.35;;
28682;SDS011;15862;43.062;25.626;2023-02-11T11:13:31;15.55;;;9.57;;
28682;SDS011;15862;43.062;25.626;2023-02-11T11:18:32;23.10;;;12.25;;
28682;SDS011;15862;43.062;25.626;2023-02-11T11:20:58;17.08;;;11.43;;
28682;SDS011;15862;43.062;25.626;2023-02-11T11:23:26;12.68;;;9.32;;
28682;SDS011;15862;43.062;25.626;2023-02-11T11:25:59;13.70;;;9.52;;
28682;SDS011;15862;43.062;25.626;2023-02-11T11:30:54;16.35;;;11.10;;
28682;SDS011;15862;43.062;25.626;2023-02-11T11:33:31;19.60;;;9.43;;
28682;SDS011;15862;43.062;25.626;2023-02-11T11:36:04;13.80;;;8.65;;
28682;SDS011;15862;43.062;25.626;2023-02-11T11:46:36;14.57;;;9.73;;
28682;SDS011;15862;43.062;25.626;2023-02-11T11:51:33;15.73;;;10.32;;
28682;SDS011;15862;43.062;25.626;2023-02-11T11:54:02;14.93;;;8.98;;
28682;SDS011;15862;43.062;25.626;2023-02-11T11:56:33;12.63;;;9.38;;
28682;SDS011;15862;43.062;25.626;2023-02-11T11:59:08;13.20;;;8.93;;
28682;SDS011;15862;43.062;25.626;2023-02-11T12:01:42;14.85;;;9.30;;
28682;SDS011;15862;43.062;25.626;2023-02-11T12:07:17;13.60;;;8.57;;
28682;SDS011;15862;43.062;25.626;2023-02-11T12:10:01;13.55;;;9.38;;
28682;SDS011;15862;43.062;25.626;2023-02-11T12:15:31;13.82;;;9.13;;
28682;SDS011;15862;43.062;25.626;2023-02-11T12:18:26;12.80;;;9.10;;
28682;SDS011;15862;43.062;25.626;2023-02-11T12:26:28;12.68;;;9.20;;
28682;SDS011;15862;43.062;25.626;2023-02-11T12:29:03;15.10;;;10.20;;
28682;SDS011;15862;43.062;25.626;2023-02-11T12:31:55;12.27;;;8.60;;
28682;SDS011;15862;43.062;25.626;2023-02-11T12:54:26;16.90;;;10.60;;
28682;SDS011;15862;43.062;25.626;2023-02-11T12:56:59;14.50;;;10.05;;
28682;SDS011;15862;43.062;25.626;2023-02-11T13:04:54;14.30;;;10.43;;
28682;SDS011;15862;43.062;25.626;2023-02-11T13:07:44;14.55;;;9.85;;
28682;SDS011;15862;43.062;25.626;2023-02-11T13:10:18;14.93;;;9.13;;
28682;SDS011;15862;43.062;25.626;2023-02-11T13:12:49;20.48;;;8.77;;
28682;SDS011;15862;43.062;25.626;2023-02-11T13:15:36;15.77;;;9.60;;
28682;SDS011;15862;43.062;25.626;2023-02-11T13:20:44;17.15;;;10.40;;
28682;SDS011;15862;43.062;25.626;2023-02-11T13:23:12;18.05;;;9.63;;
28682;SDS011;15862;43.062;25.626;2023-02-11T13:25:45;20.63;;;12.07;;
28682;SDS011;15862;43.062;25.626;2023-02-11T13:30:42;18.98;;;11.57;;
28682;SDS011;15862;43.062;25.626;2023-02-11T13:33:16;17.23;;;10.20;;
28682;SDS011;15862;43.062;25.626;2023-02-11T13:38:21;21.85;;;10.65;;
28682;SDS011;15862;43.062;25.626;2023-02-11T13:43:46;15.82;;;8.52;;
28682;SDS011;15862;43.062;25.626;2023-02-11T13:46:22;15.38;;;7.88;;
28682;SDS011;15862;43.062;25.626;2023-02-11T13:48:50;14.70;;;8.15;;
28682;SDS011;15862;43.062;25.626;2023-02-11T13:54:00;13.80;;;8.75;;
28682;SDS011;15862;43.062;25.626;2023-02-11T13:59:00;13.83;;;8.03;;
28682;SDS011;15862;43.062;25.626;2023-02-11T14:01:43;18.73;;;9.20;;
28682;SDS011;15862;43.062;25.626;2023-02-11T14:11:41;21.45;;;10.95;;
28682;SDS011;15862;43.062;25.626;2023-02-11T14:19:36;24.02;;;11.73;;
28682;SDS011;15862;43.062;25.626;2023-02-11T14:22:03;25.67;;;11.68;;
28682;SDS011;15862;43.062;25.626;2023-02-11T14:27:06;21.42;;;11.30;;
28682;SDS011;15862;43.062;25.626;2023-02-11T14:32:52;17.25;;;9.60;;
28682;SDS011;15862;43.062;25.626;2023-02-11T14:35:47;21.05;;;10.65;;
28682;SDS011;15862;43.062;25.626;2023-02-11T14:41:23;17.48;;;9.50;;
28682;SDS011;15862;43.062;25.626;2023-02-11T14:43:51;18.30;;;8.82;;
28682;SDS011;15862;43.062;25.626;2023-02-11T14:46:20;15.95;;;9.15;;
28682;SDS011;15862;43.062;25.626;2023-02-11T14:48:49;14.48;;;8.57;;
28682;SDS011;15862;43.062;25.626;2023-02-11T14:51:21;16.15;;;8.70;;
28682;SDS011;15862;43.062;25.626;2023-02-11T14:53:52;15.05;;;8.23;;
28682;SDS011;15862;43.062;25.626;2023-02-11T14:56:26;20.42;;;8.45;;
28682;SDS011;15862;43.062;25.626;2023-02-11T14:58:55;16.65;;;9.05;;
28682;SDS011;15862;43.062;25.626;2023-02-11T15:03:59;12.40;;;7.35;;
28682;SDS011;15862;43.062;25.626;2023-02-11T15:09:04;14.73;;;8.82;;
28682;SDS011;15862;43.062;25.626;2023-02-11T15:11:38;15.65;;;9.32;;
28682;SDS011;15862;43.062;25.626;2023-02-11T15:14:06;18.10;;;8.13;;
28682;SDS011;15862;43.062;25.626;2023-02-11T15:16:38;16.33;;;8.82;;
28682;SDS011;15862;43.062;25.626;2023-02-11T15:19:06;17.58;;;8.40;;
28682;SDS011;15862;43.062;25.626;2023-02-11T15:21:40;15.68;;;7.97;;
28682;SDS011;15862;43.062;25.626;2023-02-11T15:24:43;19.13;;;8.95;;
28682;SDS011;15862;43.062;25.626;2023-02-11T15:27:12;20.13;;;9.10;;
28682;SDS011;15862;43.062;25.626;2023-02-11T15:29:47;16.80;;;8.75;;
28682;SDS011;15862;43.062;25.626;2023-02-11T15:32:20;19.75;;;9.93;;
28682;SDS011;15862;43.062;25.626;2023-02-11T15:37:22;16.50;;;9.68;;
28682;SDS011;15862;43.062;25.626;2023-02-11T15:39:49;19.40;;;9.07;;
28682;SDS011;15862;43.062;25.626;2023-02-11T15:44:42;25.65;;;9.85;;
28682;SDS011;15862;43.062;25.626;2023-02-11T15:47:08;20.65;;;9.50;;
28682;SDS011;15862;43.062;25.626;2023-02-11T15:49:35;18.80;;;9.93;;
28682;SDS011;15862;43.062;25.626;2023-02-11T15:52:00;15.52;;;9.02;;
28682;SDS011;15862;43.062;25.626;2023-02-11T15:54:27;16.77;;;9.88;;
28682;SDS011;15862;43.062;25.626;2023-02-11T15:57:01;18.85;;;9.68;;
28682;SDS011;15862;43.062;25.626;2023-02-11T15:59:32;35.13;;;10.55;;
28682;SDS011;15862;43.062;25.626;2023-02-11T16:02:16;22.33;;;9.43;;
28682;SDS011;15862;43.062;25.626;2023-02-11T16:04:51;27.15;;;11.20;;
28682;SDS011;15862;43.062;25.626;2023-02-11T16:07:36;20.98;;;9.27;;
28682;SDS011;15862;43.062;25.626;2023-02-11T16:18:01;19.30;;;9.63;;
28682;SDS011;15862;43.062;25.626;2023-02-11T16:20:29;22.92;;;10.82;;
28682;SDS011;15862;43.062;25.626;2023-02-11T16:22:55;23.85;;;10.43;;
28682;SDS011;15862;43.062;25.626;2023-02-11T16:25:21;22.30;;;10.00;;
28682;SDS011;15862;43.062;25.626;2023-02-11T16:27:48;25.50;;;10.52;;
28682;SDS011;15862;43.062;25.626;2023-02-11T16:32:51;21.90;;;11.07;;
28682;SDS011;15862;43.062;25.626;2023-02-11T16:35:18;34.33;;;13.65;;
28682;SDS011;15862;43.062;25.626;2023-02-11T16:37:43;27.67;;;11.30;;
28682;SDS011;15862;43.062;25.626;2023-02-11T16:40:10;24.52;;;10.30;;
28682;SDS011;15862;43.062;25.626;2023-02-11T16:42:36;20.75;;;10.57;;
28682;SDS011;15862;43.062;25.626;2023-02-11T16:45:01;27.52;;;11.90;;
28682;SDS011;15862;43.062;25.626;2023-02-11T16:47:27;20.63;;;10.70;;
28682;SDS011;15862;43.062;25.626;2023-02-11T16:49:55;20.77;;;9.60;;
28682;SDS011;15862;43.062;25.626;2023-02-11T16:52:21;25.42;;;11.13;;
28682;SDS011;15862;43.062;25.626;2023-02-11T16:54:47;23.48;;;10.10;;
28682;SDS011;15862;43.062;25.626;2023-02-11T16:57:17;22.00;;;10.80;;
28682;SDS011;15862;43.062;25.626;2023-02-11T16:59:44;22.88;;;10.73;;
28682;SDS011;15862;43.062;25.626;2023-02-11T17:02:20;19.65;;;10.70;;
28682;SDS011;15862;43.062;25.626;2023-02-11T17:04:51;22.05;;;11.35;;
28682;SDS011;15862;43.062;25.626;2023-02-11T17:07:20;21.85;;;11.95;;
28682;SDS011;15862;43.062;25.626;2023-02-11T17:09:46;18.50;;;10.43;;
28682;SDS011;15862;43.062;25.626;2023-02-11T17:12:12;23.95;;;11.57;;
28682;SDS011;15862;43.062;25.626;2023-02-11T17:14:37;21.75;;;10.82;;